sensor_id;sensor_type;location;lat;lon;timestamp;P1;durP1;ratioP1;P2;durP2;ratioP2
43552;SDS011;29153;42.696;23.218;2023-10-19T00:00:57;20.95;;;10.65;;
43552;SDS011;29153;42.696;23.218;2023-10-19T00:03:25;18.98;;;9.73;;
43552;SDS011;29153;42.696;23.218;2023-10-19T00:05:55;19.67;;;9.90;;
43552;SDS011;29153;42.696;23.218;2023-10-19T00:08:23;21.40;;;10.58;;
43552;SDS011;29153;42.696;23.218;2023-10-19T00:10:52;19.15;;;11.30;;
43552;SDS011;29153;42.696;23.218;2023-10-19T00:13:37;18.00;;;10.13;;
43552;SDS011;29153;42.696;23.218;2023-10-19T00:16:06;18.95;;;8.65;;
43552;SDS011;29153;42.696;23.218;2023-10-19T00:18:39;18.87;;;8.28;;
43552;SDS011;29153;42.696;23.218;2023-10-19T00:21:08;18.20;;;9.58;;
43552;SDS011;29153;42.696;23.218;2023-10-19T00:23:52;17.87;;;8.78;;
43552;SDS011;29153;42.696;23.218;2023-10-19T00:26:23;20.17;;;8.85;;
43552;SDS011;29153;42.696;23.218;2023-10-19T00:28:52;20.12;;;9.25;;
43552;SDS011;29153;42.696;23.218;2023-10-19T00:31:22;16.90;;;8.63;;
43552;SDS011;29153;42.696;23.218;2023-10-19T00:33:51;16.35;;;8.13;;
43552;SDS011;29153;42.696;23.218;2023-10-19T00:38:48;16.10;;;7.47;;
43552;SDS011;29153;42.696;23.218;2023-10-19T00:41:19;14.47;;;8.58;;
43552;SDS011;29153;42.696;23.218;2023-10-19T00:43:52;17.12;;;8.30;;
43552;SDS011;29153;42.696;23.218;2023-10-19T00:46:21;14.00;;;7.45;;
43552;SDS011;29153;42.696;23.218;2023-10-19T00:48:54;18.23;;;7.75;;
43552;SDS011;29153;42.696;23.218;2023-10-19T00:51:24;15.23;;;8.10;;
43552;SDS011;29153;42.696;23.218;2023-10-19T00:54:04;14.50;;;6.97;;
43552;SDS011;29153;42.696;23.218;2023-10-19T00:56:33;18.15;;;7.80;;
43552;SDS011;29153;42.696;23.218;2023-10-19T01:01:42;13.60;;;6.53;;
43552;SDS011;29153;42.696;23.218;2023-10-19T01:04:12;14.43;;;7.97;;
43552;SDS011;29153;42.696;23.218;2023-10-19T01:06:49;15.05;;;6.87;;
43552;SDS011;29153;42.696;23.218;2023-10-19T01:09:33;15.40;;;8.15;;
43552;SDS011;29153;42.696;23.218;2023-10-19T01:12:05;16.42;;;7.15;;
43552;SDS011;29153;42.696;23.218;2023-10-19T01:17:33;17.20;;;7.60;;
43552;SDS011;29153;42.696;23.218;2023-10-19T01:20:05;18.07;;;8.58;;
43552;SDS011;29153;42.696;23.218;2023-10-19T01:22:50;18.12;;;8.68;;
43552;SDS011;29153;42.696;23.218;2023-10-19T01:28:22;15.98;;;8.25;;
43552;SDS011;29153;42.696;23.218;2023-10-19T01:31:12;17.77;;;9.35;;
43552;SDS011;29153;42.696;23.218;2023-10-19T01:33:49;17.35;;;8.23;;
43552;SDS011;29153;42.696;23.218;2023-10-19T01:36:18;15.38;;;8.05;;
43552;SDS011;29153;42.696;23.218;2023-10-19T01:38:51;16.45;;;8.55;;
43552;SDS011;29153;42.696;23.218;2023-10-19T01:41:21;13.68;;;7.67;;
43552;SDS011;29153;42.696;23.218;2023-10-19T01:43:51;15.05;;;8.48;;
43552;SDS011;29153;42.696;23.218;2023-10-19T01:46:21;16.50;;;8.00;;
43552;SDS011;29153;42.696;23.218;2023-10-19T01:48:54;14.43;;;7.20;;
43552;SDS011;29153;42.696;23.218;2023-10-19T01:51:22;16.02;;;7.10;;
43552;SDS011;29153;42.696;23.218;2023-10-19T01:53:53;13.72;;;7.22;;
43552;SDS011;29153;42.696;23.218;2023-10-19T01:56:21;14.65;;;7.03;;
43552;SDS011;29153;42.696;23.218;2023-10-19T01:58:49;15.53;;;7.65;;
43552;SDS011;29153;42.696;23.218;2023-10-19T02:01:18;15.13;;;7.90;;
43552;SDS011;29153;42.696;23.218;2023-10-19T02:03:48;13.35;;;6.75;;
43552;SDS011;29153;42.696;23.218;2023-10-19T02:06:21;12.82;;;6.17;;
43552;SDS011;29153;42.696;23.218;2023-10-19T02:08:51;13.70;;;6.78;;
43552;SDS011;29153;42.696;23.218;2023-10-19T02:11:22;15.30;;;7.65;;
43552;SDS011;29153;42.696;23.218;2023-10-19T02:13:51;12.68;;;7.42;;
43552;SDS011;29153;42.696;23.218;2023-10-19T02:16:20;13.43;;;7.00;;
43552;SDS011;29153;42.696;23.218;2023-10-19T02:18:53;13.03;;;6.62;;
43552;SDS011;29153;42.696;23.218;2023-10-19T02:21:19;12.40;;;6.72;;
43552;SDS011;29153;42.696;23.218;2023-10-19T02:23:51;12.00;;;6.17;;
43552;SDS011;29153;42.696;23.218;2023-10-19T02:26:19;13.03;;;6.55;;
43552;SDS011;29153;42.696;23.218;2023-10-19T02:28:49;13.03;;;6.50;;
43552;SDS011;29153;42.696;23.218;2023-10-19T02:31:17;14.85;;;6.75;;
43552;SDS011;29153;42.696;23.218;2023-10-19T02:33:51;12.75;;;6.22;;
43552;SDS011;29153;42.696;23.218;2023-10-19T02:36:21;14.70;;;6.92;;
43552;SDS011;29153;42.696;23.218;2023-10-19T02:38:49;13.62;;;6.97;;
43552;SDS011;29153;42.696;23.218;2023-10-19T02:41:17;14.45;;;7.50;;
43552;SDS011;29153;42.696;23.218;2023-10-19T02:43:49;14.68;;;7.03;;
43552;SDS011;29153;42.696;23.218;2023-10-19T02:46:33;15.18;;;6.45;;
43552;SDS011;29153;42.696;23.218;2023-10-19T02:49:03;15.03;;;7.20;;
43552;SDS011;29153;42.696;23.218;2023-10-19T02:51:39;12.07;;;6.22;;
43552;SDS011;29153;42.696;23.218;2023-10-19T02:54:12;11.75;;;6.20;;
43552;SDS011;29153;42.696;23.218;2023-10-19T02:56:49;12.73;;;6.42;;
43552;SDS011;29153;42.696;23.218;2023-10-19T02:59:19;14.20;;;6.17;;
43552;SDS011;29153;42.696;23.218;2023-10-19T03:01:51;13.78;;;6.55;;
43552;SDS011;29153;42.696;23.218;2023-10-19T03:04:22;13.00;;;6.03;;
43552;SDS011;29153;42.696;23.218;2023-10-19T03:06:51;12.47;;;7.10;;
43552;SDS011;29153;42.696;23.218;2023-10-19T03:09:18;12.63;;;7.20;;
43552;SDS011;29153;42.696;23.218;2023-10-19T03:11:50;13.32;;;6.62;;
43552;SDS011;29153;42.696;23.218;2023-10-19T03:14:22;12.18;;;6.58;;
43552;SDS011;29153;42.696;23.218;2023-10-19T03:19:19;13.88;;;6.90;;
43552;SDS011;29153;42.696;23.218;2023-10-19T03:21:47;12.05;;;6.15;;
43552;SDS011;29153;42.696;23.218;2023-10-19T03:24:15;14.15;;;6.95;;
43552;SDS011;29153;42.696;23.218;2023-10-19T03:26:51;12.73;;;6.08;;
43552;SDS011;29153;42.696;23.218;2023-10-19T03:29:20;13.55;;;6.40;;
43552;SDS011;29153;42.696;23.218;2023-10-19T03:31:57;13.00;;;5.75;;
43552;SDS011;29153;42.696;23.218;2023-10-19T03:34:25;13.93;;;7.53;;
43552;SDS011;29153;42.696;23.218;2023-10-19T03:36:53;13.20;;;6.08;;
43552;SDS011;29153;42.696;23.218;2023-10-19T03:39:20;16.32;;;7.12;;
43552;SDS011;29153;42.696;23.218;2023-10-19T03:41:48;19.85;;;7.80;;
43552;SDS011;29153;42.696;23.218;2023-10-19T03:44:17;13.30;;;7.15;;
43552;SDS011;29153;42.696;23.218;2023-10-19T03:46:51;14.95;;;6.90;;
43552;SDS011;29153;42.696;23.218;2023-10-19T03:49:19;15.50;;;7.15;;
43552;SDS011;29153;42.696;23.218;2023-10-19T03:51:47;16.97;;;8.38;;
43552;SDS011;29153;42.696;23.218;2023-10-19T03:54:32;18.50;;;8.00;;
43552;SDS011;29153;42.696;23.218;2023-10-19T03:57:01;19.82;;;9.85;;
43552;SDS011;29153;42.696;23.218;2023-10-19T03:59:31;18.65;;;8.50;;
43552;SDS011;29153;42.696;23.218;2023-10-19T04:02:03;18.23;;;8.58;;
43552;SDS011;29153;42.696;23.218;2023-10-19T04:04:41;23.00;;;9.98;;
43552;SDS011;29153;42.696;23.218;2023-10-19T04:07:09;23.55;;;9.38;;
43552;SDS011;29153;42.696;23.218;2023-10-19T04:09:39;21.95;;;11.48;;
43552;SDS011;29153;42.696;23.218;2023-10-19T04:12:25;19.87;;;8.93;;
43552;SDS011;29153;42.696;23.218;2023-10-19T04:14:57;19.50;;;8.70;;
43552;SDS011;29153;42.696;23.218;2023-10-19T04:17:27;22.77;;;10.60;;
43552;SDS011;29153;42.696;23.218;2023-10-19T04:19:54;19.00;;;10.20;;
43552;SDS011;29153;42.696;23.218;2023-10-19T04:22:22;21.12;;;10.03;;
43552;SDS011;29153;42.696;23.218;2023-10-19T04:24:50;22.65;;;10.82;;
43552;SDS011;29153;42.696;23.218;2023-10-19T04:27:18;21.27;;;11.22;;
43552;SDS011;29153;42.696;23.218;2023-10-19T04:29:49;20.90;;;9.80;;
43552;SDS011;29153;42.696;23.218;2023-10-19T04:32:17;21.97;;;10.48;;
43552;SDS011;29153;42.696;23.218;2023-10-19T04:34:46;22.10;;;10.88;;
43552;SDS011;29153;42.696;23.218;2023-10-19T04:37:14;23.47;;;10.05;;
43552;SDS011;29153;42.696;23.218;2023-10-19T04:39:43;21.85;;;9.85;;
43552;SDS011;29153;42.696;23.218;2023-10-19T04:42:11;21.87;;;10.98;;
43552;SDS011;29153;42.696;23.218;2023-10-19T04:44:40;21.77;;;10.38;;
43552;SDS011;29153;42.696;23.218;2023-10-19T04:47:07;21.77;;;10.35;;
43552;SDS011;29153;42.696;23.218;2023-10-19T04:49:35;22.90;;;10.20;;
43552;SDS011;29153;42.696;23.218;2023-10-19T04:54:30;22.15;;;9.78;;
43552;SDS011;29153;42.696;23.218;2023-10-19T04:56:58;21.20;;;9.93;;
43552;SDS011;29153;42.696;23.218;2023-10-19T04:59:26;24.98;;;10.35;;
43552;SDS011;29153;42.696;23.218;2023-10-19T05:01:53;19.65;;;9.78;;
43552;SDS011;29153;42.696;23.218;2023-10-19T05:04:21;21.77;;;10.13;;
43552;SDS011;29153;42.696;23.218;2023-10-19T05:06:49;22.32;;;11.03;;
43552;SDS011;29153;42.696;23.218;2023-10-19T05:09:17;25.15;;;12.07;;
43552;SDS011;29153;42.696;23.218;2023-10-19T05:11:44;24.35;;;11.35;;
43552;SDS011;29153;42.696;23.218;2023-10-19T05:14:15;27.00;;;10.88;;
43552;SDS011;29153;42.696;23.218;2023-10-19T05:16:42;24.25;;;11.55;;
43552;SDS011;29153;42.696;23.218;2023-10-19T05:19:10;25.37;;;11.50;;
43552;SDS011;29153;42.696;23.218;2023-10-19T05:21:37;27.58;;;13.18;;
43552;SDS011;29153;42.696;23.218;2023-10-19T05:24:05;27.48;;;12.58;;
43552;SDS011;29153;42.696;23.218;2023-10-19T05:26:33;29.23;;;13.30;;
43552;SDS011;29153;42.696;23.218;2023-10-19T05:29:01;29.00;;;13.78;;
43552;SDS011;29153;42.696;23.218;2023-10-19T05:31:28;28.40;;;13.08;;
43552;SDS011;29153;42.696;23.218;2023-10-19T05:33:56;33.33;;;13.85;;
43552;SDS011;29153;42.696;23.218;2023-10-19T05:36:24;34.80;;;14.58;;
43552;SDS011;29153;42.696;23.218;2023-10-19T05:38:51;35.28;;;15.08;;
43552;SDS011;29153;42.696;23.218;2023-10-19T05:41:19;37.80;;;17.12;;
43552;SDS011;29153;42.696;23.218;2023-10-19T05:43:46;39.50;;;16.25;;
43552;SDS011;29153;42.696;23.218;2023-10-19T05:46:15;39.60;;;16.52;;
43552;SDS011;29153;42.696;23.218;2023-10-19T05:48:44;49.55;;;18.92;;
43552;SDS011;29153;42.696;23.218;2023-10-19T05:51:11;46.55;;;19.55;;
43552;SDS011;29153;42.696;23.218;2023-10-19T05:53:40;39.05;;;16.35;;
43552;SDS011;29153;42.696;23.218;2023-10-19T05:56:07;57.90;;;16.42;;
43552;SDS011;29153;42.696;23.218;2023-10-19T06:01:03;48.45;;;15.98;;
43552;SDS011;29153;42.696;23.218;2023-10-19T06:03:30;44.10;;;15.78;;
43552;SDS011;29153;42.696;23.218;2023-10-19T06:05:58;49.27;;;15.98;;
43552;SDS011;29153;42.696;23.218;2023-10-19T06:08:26;53.23;;;17.75;;
43552;SDS011;29153;42.696;23.218;2023-10-19T06:10:54;47.67;;;17.92;;
43552;SDS011;29153;42.696;23.218;2023-10-19T06:13:22;39.05;;;17.17;;
43552;SDS011;29153;42.696;23.218;2023-10-19T06:15:49;37.70;;;16.40;;
43552;SDS011;29153;42.696;23.218;2023-10-19T06:18:17;39.48;;;17.57;;
43552;SDS011;29153;42.696;23.218;2023-10-19T06:20:44;35.63;;;16.37;;
43552;SDS011;29153;42.696;23.218;2023-10-19T06:23:12;38.92;;;16.87;;
43552;SDS011;29153;42.696;23.218;2023-10-19T06:25:40;37.48;;;16.45;;
43552;SDS011;29153;42.696;23.218;2023-10-19T06:30:36;32.78;;;14.78;;
43552;SDS011;29153;42.696;23.218;2023-10-19T06:33:05;36.17;;;16.70;;
43552;SDS011;29153;42.696;23.218;2023-10-19T06:35:33;35.50;;;17.30;;
43552;SDS011;29153;42.696;23.218;2023-10-19T06:38:03;38.73;;;16.25;;
43552;SDS011;29153;42.696;23.218;2023-10-19T06:40:30;37.95;;;18.37;;
43552;SDS011;29153;42.696;23.218;2023-10-19T06:43:02;39.55;;;18.27;;
43552;SDS011;29153;42.696;23.218;2023-10-19T06:45:30;38.23;;;17.32;;
43552;SDS011;29153;42.696;23.218;2023-10-19T06:47:59;37.45;;;17.37;;
43552;SDS011;29153;42.696;23.218;2023-10-19T06:50:26;35.33;;;17.75;;
43552;SDS011;29153;42.696;23.218;2023-10-19T06:52:54;36.73;;;17.85;;
43552;SDS011;29153;42.696;23.218;2023-10-19T06:55:22;40.52;;;19.75;;
43552;SDS011;29153;42.696;23.218;2023-10-19T06:57:50;35.35;;;18.23;;
43552;SDS011;29153;42.696;23.218;2023-10-19T07:00:21;40.12;;;20.43;;
43552;SDS011;29153;42.696;23.218;2023-10-19T07:02:49;37.75;;;18.62;;
43552;SDS011;29153;42.696;23.218;2023-10-19T07:05:17;39.48;;;20.55;;
43552;SDS011;29153;42.696;23.218;2023-10-19T07:07:53;41.53;;;19.40;;
43552;SDS011;29153;42.696;23.218;2023-10-19T07:10:22;40.58;;;20.88;;
43552;SDS011;29153;42.696;23.218;2023-10-19T07:12:51;40.63;;;21.07;;
43552;SDS011;29153;42.696;23.218;2023-10-19T07:15:20;38.60;;;17.75;;
43552;SDS011;29153;42.696;23.218;2023-10-19T07:17:50;38.10;;;17.67;;
43552;SDS011;29153;42.696;23.218;2023-10-19T07:20:21;28.70;;;15.70;;
43552;SDS011;29153;42.696;23.218;2023-10-19T07:22:59;30.90;;;15.45;;
43552;SDS011;29153;42.696;23.218;2023-10-19T07:25:22;31.62;;;17.32;;
43552;SDS011;29153;42.696;23.218;2023-10-19T07:27:51;30.57;;;14.78;;
43552;SDS011;29153;42.696;23.218;2023-10-19T07:30:19;30.27;;;14.98;;
43552;SDS011;29153;42.696;23.218;2023-10-19T07:32:49;31.12;;;14.78;;
43552;SDS011;29153;42.696;23.218;2023-10-19T07:35:19;28.12;;;14.98;;
43552;SDS011;29153;42.696;23.218;2023-10-19T07:37:48;26.60;;;15.55;;
43552;SDS011;29153;42.696;23.218;2023-10-19T07:40:16;28.15;;;15.30;;
43552;SDS011;29153;42.696;23.218;2023-10-19T07:42:44;29.02;;;15.95;;
43552;SDS011;29153;42.696;23.218;2023-10-19T07:45:12;31.05;;;16.55;;
43552;SDS011;29153;42.696;23.218;2023-10-19T07:47:40;30.57;;;16.67;;
43552;SDS011;29153;42.696;23.218;2023-10-19T07:50:10;28.10;;;16.45;;
43552;SDS011;29153;42.696;23.218;2023-10-19T07:52:40;28.73;;;14.70;;
43552;SDS011;29153;42.696;23.218;2023-10-19T07:55:09;28.50;;;14.28;;
43552;SDS011;29153;42.696;23.218;2023-10-19T07:57:36;28.00;;;15.18;;
43552;SDS011;29153;42.696;23.218;2023-10-19T08:00:06;26.87;;;14.55;;
43552;SDS011;29153;42.696;23.218;2023-10-19T08:02:35;26.93;;;15.55;;
43552;SDS011;29153;42.696;23.218;2023-10-19T08:05:05;28.47;;;15.90;;
43552;SDS011;29153;42.696;23.218;2023-10-19T08:07:33;23.98;;;13.60;;
43552;SDS011;29153;42.696;23.218;2023-10-19T08:10:02;28.42;;;15.40;;
43552;SDS011;29153;42.696;23.218;2023-10-19T08:12:31;28.77;;;15.15;;
43552;SDS011;29153;42.696;23.218;2023-10-19T08:14:59;20.65;;;11.35;;
43552;SDS011;29153;42.696;23.218;2023-10-19T08:17:26;19.30;;;11.20;;
43552;SDS011;29153;42.696;23.218;2023-10-19T08:19:54;22.52;;;13.48;;
43552;SDS011;29153;42.696;23.218;2023-10-19T08:22:22;24.87;;;14.28;;
43552;SDS011;29153;42.696;23.218;2023-10-19T08:24:52;20.37;;;11.25;;
43552;SDS011;29153;42.696;23.218;2023-10-19T08:29:47;21.60;;;11.57;;
43552;SDS011;29153;42.696;23.218;2023-10-19T08:32:14;22.60;;;11.73;;
43552;SDS011;29153;42.696;23.218;2023-10-19T08:34:42;26.10;;;14.43;;
43552;SDS011;29153;42.696;23.218;2023-10-19T08:37:09;23.40;;;14.20;;
43552;SDS011;29153;42.696;23.218;2023-10-19T08:39:37;26.00;;;14.73;;
43552;SDS011;29153;42.696;23.218;2023-10-19T08:42:06;25.52;;;16.35;;
43552;SDS011;29153;42.696;23.218;2023-10-19T08:44:35;26.90;;;15.30;;
43552;SDS011;29153;42.696;23.218;2023-10-19T08:47:02;25.62;;;12.68;;
43552;SDS011;29153;42.696;23.218;2023-10-19T08:49:31;24.47;;;14.23;;
43552;SDS011;29153;42.696;23.218;2023-10-19T09:18:54;28.73;;;15.15;;
43552;SDS011;29153;42.696;23.218;2023-10-19T09:21:22;32.53;;;18.17;;
43552;SDS011;29153;42.696;23.218;2023-10-19T09:26:24;23.07;;;13.28;;
43552;SDS011;29153;42.696;23.218;2023-10-19T09:28:52;17.52;;;11.08;;
43552;SDS011;29153;42.696;23.218;2023-10-19T09:31:20;22.93;;;12.30;;
43552;SDS011;29153;42.696;23.218;2023-10-19T09:33:49;22.17;;;12.43;;
43552;SDS011;29153;42.696;23.218;2023-10-19T09:36:18;19.42;;;12.05;;
43552;SDS011;29153;42.696;23.218;2023-10-19T09:38:48;21.15;;;12.43;;
43552;SDS011;29153;42.696;23.218;2023-10-19T09:41:18;24.27;;;13.30;;
43552;SDS011;29153;42.696;23.218;2023-10-19T09:43:48;23.85;;;13.10;;
43552;SDS011;29153;42.696;23.218;2023-10-19T09:46:23;19.52;;;12.85;;
43552;SDS011;29153;42.696;23.218;2023-10-19T09:48:57;20.15;;;10.55;;
43552;SDS011;29153;42.696;23.218;2023-10-19T09:51:24;15.20;;;9.78;;
43552;SDS011;29153;42.696;23.218;2023-10-19T09:56:41;13.78;;;7.97;;
43552;SDS011;29153;42.696;23.218;2023-10-19T09:59:13;14.23;;;8.65;;
43552;SDS011;29153;42.696;23.218;2023-10-19T10:04:47;13.22;;;8.75;;
43552;SDS011;29153;42.696;23.218;2023-10-19T10:09:42;12.58;;;8.88;;
43552;SDS011;29153;42.696;23.218;2023-10-19T10:12:23;12.90;;;8.05;;
43552;SDS011;29153;42.696;23.218;2023-10-19T10:14:56;15.50;;;7.00;;
43552;SDS011;29153;42.696;23.218;2023-10-19T10:17:34;15.43;;;8.95;;
43552;SDS011;29153;42.696;23.218;2023-10-19T10:22:45;20.30;;;9.25;;
43552;SDS011;29153;42.696;23.218;2023-10-19T10:25:34;13.85;;;8.15;;
43552;SDS011;29153;42.696;23.218;2023-10-19T10:28:03;15.38;;;8.55;;
43552;SDS011;29153;42.696;23.218;2023-10-19T10:30:30;20.90;;;10.40;;
43552;SDS011;29153;42.696;23.218;2023-10-19T10:32:58;12.88;;;7.65;;
43552;SDS011;29153;42.696;23.218;2023-10-19T10:38:09;13.32;;;8.78;;
43552;SDS011;29153;42.696;23.218;2023-10-19T10:40:44;16.62;;;7.78;;
43552;SDS011;29153;42.696;23.218;2023-10-19T10:43:13;12.78;;;8.00;;
43552;SDS011;29153;42.696;23.218;2023-10-19T10:45:41;14.90;;;8.20;;
43552;SDS011;29153;42.696;23.218;2023-10-19T10:48:12;18.25;;;10.18;;
43552;SDS011;29153;42.696;23.218;2023-10-19T10:50:45;14.93;;;8.63;;
43552;SDS011;29153;42.696;23.218;2023-10-19T10:53:13;15.13;;;8.58;;
43552;SDS011;29153;42.696;23.218;2023-10-19T10:55:41;11.97;;;7.35;;
43552;SDS011;29153;42.696;23.218;2023-10-19T10:58:09;11.90;;;7.72;;
43552;SDS011;29153;42.696;23.218;2023-10-19T11:00:44;14.43;;;7.55;;
43552;SDS011;29153;42.696;23.218;2023-10-19T11:03:16;14.78;;;7.55;;
43552;SDS011;29153;42.696;23.218;2023-10-19T11:05:47;11.28;;;6.97;;
43552;SDS011;29153;42.696;23.218;2023-10-19T11:08:15;12.68;;;7.25;;
43552;SDS011;29153;42.696;23.218;2023-10-19T11:10:45;12.90;;;6.12;;
43552;SDS011;29153;42.696;23.218;2023-10-19T11:13:14;12.53;;;7.17;;
43552;SDS011;29153;42.696;23.218;2023-10-19T11:15:49;11.05;;;6.30;;
43552;SDS011;29153;42.696;23.218;2023-10-19T11:18:34;13.10;;;6.40;;
43552;SDS011;29153;42.696;23.218;2023-10-19T11:21:08;10.30;;;5.55;;
43552;SDS011;29153;42.696;23.218;2023-10-19T11:23:44;14.70;;;7.67;;
43552;SDS011;29153;42.696;23.218;2023-10-19T11:26:15;11.25;;;6.72;;
43552;SDS011;29153;42.696;23.218;2023-10-19T11:28:43;10.93;;;7.47;;
43552;SDS011;29153;42.696;23.218;2023-10-19T11:31:22;11.05;;;6.60;;
43552;SDS011;29153;42.696;23.218;2023-10-19T11:33:50;10.43;;;6.17;;
43552;SDS011;29153;42.696;23.218;2023-10-19T11:36:19;10.48;;;6.83;;
43552;SDS011;29153;42.696;23.218;2023-10-19T11:38:48;10.20;;;6.33;;
43552;SDS011;29153;42.696;23.218;2023-10-19T11:41:17;9.70;;;6.62;;
43552;SDS011;29153;42.696;23.218;2023-10-19T11:43:45;10.38;;;5.70;;
43552;SDS011;29153;42.696;23.218;2023-10-19T11:46:15;8.73;;;5.80;;
43552;SDS011;29153;42.696;23.218;2023-10-19T11:48:47;8.55;;;5.72;;
43552;SDS011;29153;42.696;23.218;2023-10-19T11:51:14;10.18;;;5.37;;
43552;SDS011;29153;42.696;23.218;2023-10-19T11:53:42;9.23;;;4.55;;
43552;SDS011;29153;42.696;23.218;2023-10-19T11:56:10;8.53;;;5.40;;
43552;SDS011;29153;42.696;23.218;2023-10-19T11:58:38;9.03;;;5.40;;
43552;SDS011;29153;42.696;23.218;2023-10-19T12:01:07;10.93;;;5.90;;
43552;SDS011;29153;42.696;23.218;2023-10-19T12:03:39;13.00;;;6.22;;
43552;SDS011;29153;42.696;23.218;2023-10-19T12:06:09;10.95;;;5.75;;
43552;SDS011;29153;42.696;23.218;2023-10-19T12:08:39;8.33;;;4.95;;
43552;SDS011;29153;42.696;23.218;2023-10-19T12:11:06;9.25;;;4.53;;
43552;SDS011;29153;42.696;23.218;2023-10-19T12:13:44;8.90;;;4.25;;
43552;SDS011;29153;42.696;23.218;2023-10-19T12:18:41;8.75;;;4.65;;
43552;SDS011;29153;42.696;23.218;2023-10-19T12:21:14;10.65;;;4.35;;
43552;SDS011;29153;42.696;23.218;2023-10-19T12:23:43;7.78;;;4.83;;
43552;SDS011;29153;42.696;23.218;2023-10-19T12:26:13;9.35;;;4.60;;
43552;SDS011;29153;42.696;23.218;2023-10-19T12:28:40;9.98;;;5.22;;
43552;SDS011;29153;42.696;23.218;2023-10-19T12:31:09;8.23;;;5.70;;
43552;SDS011;29153;42.696;23.218;2023-10-19T12:33:37;8.58;;;5.00;;
43552;SDS011;29153;42.696;23.218;2023-10-19T12:36:06;12.63;;;5.75;;
43552;SDS011;29153;42.696;23.218;2023-10-19T12:38:52;8.85;;;5.30;;
43552;SDS011;29153;42.696;23.218;2023-10-19T12:41:23;9.35;;;4.83;;
43552;SDS011;29153;42.696;23.218;2023-10-19T12:43:51;9.53;;;5.47;;
43552;SDS011;29153;42.696;23.218;2023-10-19T12:46:21;9.95;;;5.30;;
43552;SDS011;29153;42.696;23.218;2023-10-19T12:48:51;10.23;;;5.78;;
43552;SDS011;29153;42.696;23.218;2023-10-19T12:51:20;10.10;;;5.75;;
43552;SDS011;29153;42.696;23.218;2023-10-19T12:53:50;11.40;;;5.40;;
43552;SDS011;29153;42.696;23.218;2023-10-19T12:56:18;8.70;;;5.40;;
43552;SDS011;29153;42.696;23.218;2023-10-19T12:58:48;8.20;;;5.00;;
43552;SDS011;29153;42.696;23.218;2023-10-19T13:01:16;13.20;;;5.03;;
43552;SDS011;29153;42.696;23.218;2023-10-19T13:06:13;11.03;;;4.60;;
43552;SDS011;29153;42.696;23.218;2023-10-19T13:08:41;10.63;;;4.40;;
43552;SDS011;29153;42.696;23.218;2023-10-19T13:11:09;11.05;;;4.92;;
43552;SDS011;29153;42.696;23.218;2023-10-19T13:13:38;8.98;;;4.90;;
43552;SDS011;29153;42.696;23.218;2023-10-19T13:16:06;7.83;;;4.87;;
43552;SDS011;29153;42.696;23.218;2023-10-19T13:18:35;6.25;;;3.72;;
43552;SDS011;29153;42.696;23.218;2023-10-19T13:21:04;7.97;;;4.53;;
43552;SDS011;29153;42.696;23.218;2023-10-19T13:23:34;7.37;;;4.60;;
43552;SDS011;29153;42.696;23.218;2023-10-19T13:26:02;10.98;;;4.85;;
43552;SDS011;29153;42.696;23.218;2023-10-19T13:28:34;7.65;;;4.20;;
43552;SDS011;29153;42.696;23.218;2023-10-19T13:31:03;6.85;;;4.50;;
43552;SDS011;29153;42.696;23.218;2023-10-19T13:33:32;7.15;;;4.03;;
43552;SDS011;29153;42.696;23.218;2023-10-19T13:36:00;11.43;;;4.65;;
43552;SDS011;29153;42.696;23.218;2023-10-19T13:38:28;7.08;;;4.65;;
43552;SDS011;29153;42.696;23.218;2023-10-19T13:40:58;8.40;;;4.53;;
43552;SDS011;29153;42.696;23.218;2023-10-19T13:43:27;8.98;;;4.50;;
43552;SDS011;29153;42.696;23.218;2023-10-19T13:45:55;7.20;;;5.00;;
43552;SDS011;29153;42.696;23.218;2023-10-19T13:48:22;8.53;;;4.30;;
43552;SDS011;29153;42.696;23.218;2023-10-19T13:50:50;7.50;;;5.10;;
43552;SDS011;29153;42.696;23.218;2023-10-19T13:53:19;7.00;;;4.45;;
43552;SDS011;29153;42.696;23.218;2023-10-19T13:55:46;10.95;;;4.87;;
43552;SDS011;29153;42.696;23.218;2023-10-19T13:58:14;13.05;;;4.67;;
43552;SDS011;29153;42.696;23.218;2023-10-19T14:00:44;7.87;;;5.08;;
43552;SDS011;29153;42.696;23.218;2023-10-19T14:03:13;9.00;;;5.22;;
43552;SDS011;29153;42.696;23.218;2023-10-19T14:05:44;7.37;;;4.78;;
43552;SDS011;29153;42.696;23.218;2023-10-19T14:08:17;7.92;;;4.58;;
43552;SDS011;29153;42.696;23.218;2023-10-19T14:10:46;9.38;;;5.40;;
43552;SDS011;29153;42.696;23.218;2023-10-19T14:13:13;13.62;;;5.30;;
43552;SDS011;29153;42.696;23.218;2023-10-19T14:18:08;9.45;;;5.00;;
43552;SDS011;29153;42.696;23.218;2023-10-19T14:20:38;14.50;;;4.28;;
43552;SDS011;29153;42.696;23.218;2023-10-19T14:23:06;8.30;;;5.03;;
43552;SDS011;29153;42.696;23.218;2023-10-19T14:25:37;10.30;;;5.35;;
43552;SDS011;29153;42.696;23.218;2023-10-19T14:28:06;7.95;;;5.28;;
43552;SDS011;29153;42.696;23.218;2023-10-19T14:30:33;8.80;;;4.70;;
43552;SDS011;29153;42.696;23.218;2023-10-19T14:33:01;8.80;;;4.50;;
43552;SDS011;29153;42.696;23.218;2023-10-19T14:35:30;9.50;;;4.60;;
43552;SDS011;29153;42.696;23.218;2023-10-19T14:37:59;8.03;;;4.35;;
43552;SDS011;29153;42.696;23.218;2023-10-19T14:40:28;8.05;;;4.47;;
43552;SDS011;29153;42.696;23.218;2023-10-19T14:42:56;9.53;;;4.80;;
43552;SDS011;29153;42.696;23.218;2023-10-19T14:45:24;11.48;;;4.45;;
43552;SDS011;29153;42.696;23.218;2023-10-19T14:47:55;10.80;;;5.10;;
43552;SDS011;29153;42.696;23.218;2023-10-19T14:50:24;7.87;;;4.80;;
43552;SDS011;29153;42.696;23.218;2023-10-19T14:52:53;9.18;;;4.80;;
43552;SDS011;29153;42.696;23.218;2023-10-19T14:55:21;9.95;;;4.72;;
43552;SDS011;29153;42.696;23.218;2023-10-19T14:57:50;9.15;;;5.20;;
43552;SDS011;29153;42.696;23.218;2023-10-19T15:00:19;7.17;;;4.53;;
43552;SDS011;29153;42.696;23.218;2023-10-19T15:02:48;8.63;;;5.35;;
43552;SDS011;29153;42.696;23.218;2023-10-19T15:05:17;8.05;;;4.97;;
43552;SDS011;29153;42.696;23.218;2023-10-19T15:07:48;9.43;;;5.42;;
43552;SDS011;29153;42.696;23.218;2023-10-19T15:10:22;26.25;;;12.20;;
43552;SDS011;29153;42.696;23.218;2023-10-19T15:12:51;16.67;;;8.58;;
43552;SDS011;29153;42.696;23.218;2023-10-19T15:15:19;12.55;;;7.40;;
43552;SDS011;29153;42.696;23.218;2023-10-19T15:17:47;10.63;;;5.60;;
43552;SDS011;29153;42.696;23.218;2023-10-19T15:20:16;10.10;;;4.95;;
43552;SDS011;29153;42.696;23.218;2023-10-19T15:22:45;5.80;;;2.90;;
43552;SDS011;29153;42.696;23.218;2023-10-19T15:25:14;10.50;;;2.60;;
43552;SDS011;29153;42.696;23.218;2023-10-19T15:27:43;10.95;;;3.83;;
43552;SDS011;29153;42.696;23.218;2023-10-19T15:30:11;12.15;;;6.40;;
43552;SDS011;29153;42.696;23.218;2023-10-19T15:32:39;15.93;;;7.45;;
43552;SDS011;29153;42.696;23.218;2023-10-19T15:35:08;23.12;;;8.70;;
43552;SDS011;29153;42.696;23.218;2023-10-19T15:37:42;35.35;;;11.40;;
43552;SDS011;29153;42.696;23.218;2023-10-19T15:40:13;17.12;;;7.20;;
43552;SDS011;29153;42.696;23.218;2023-10-19T15:42:41;7.58;;;3.17;;
43552;SDS011;29153;42.696;23.218;2023-10-19T15:45:10;4.78;;;2.30;;
43552;SDS011;29153;42.696;23.218;2023-10-19T15:47:44;6.22;;;2.83;;